Time;durP1;ratioP1;P1;durP2;ratioP2;P2;SDS_P1;SDS_P2;PMS_P1;PMS_P2;Temp;Humidity;BMP_temperature;BMP_pressure;BME280_temperature;BME280_humidity;BME280_pressure;Samples;Min_cycle;Max_cycle;Signal;HPM_P1;HPM_P2
2023/01/30 00:03:00;;;;;;;10.10;9.10;;;;;;;20.80;32.15;95243.94;6080225;28;112778;-66
2023/01/30 00:06:07;;;;;;;8.83;8.00;;;;;;;20.80;32.48;95247.38;6084602;28;109995;-66
2023/01/30 00:09:12;;;;;;;9.77;8.80;;;;;;;20.80;32.64;95236.75;6085928;28;110293;-66
2023/01/30 00:12:15;;;;;;;9.93;8.93;;;;;;;20.78;32.42;95236.25;6091469;28;109731;-66
2023/01/30 00:15:20;;;;;;;10.83;9.63;;;;;;;20.78;32.25;95232.81;6074010;28;109277;-66
2023/01/30 00:18:23;;;;;;;10.00;9.10;;;;;;;20.79;31.77;95239.69;6086328;28;109847;-66
2023/01/30 00:21:28;;;;;;;9.23;8.43;;;;;;;20.80;32.39;95233.28;6087698;28;109463;-66
2023/01/30 00:24:31;;;;;;;9.73;8.77;;;;;;;20.76;32.44;95243.72;6078697;28;111085;-65
2023/01/30 00:27:34;;;;;;;10.40;9.40;;;;;;;20.74;32.17;95237.13;6085390;28;109116;-66
2023/01/30 00:30:37;;;;;;;9.80;8.80;;;;;;;20.77;32.21;95237.34;6090394;28;108779;-66
2023/01/30 00:33:40;;;;;;;9.63;8.73;;;;;;;20.78;31.99;95246.09;6087456;28;109200;-66
2023/01/30 00:36:45;;;;;;;10.27;9.27;;;;;;;20.78;32.33;95246.09;6077149;28;109181;-66
2023/01/30 00:39:55;;;;;;;9.83;8.93;;;;;;;20.76;32.09;95230.44;6087762;28;110221;-66
2023/01/30 00:49:42;;;;;;;9.40;8.50;;;;;;;20.78;32.20;95224.81;6083007;28;111681;-66
2023/01/30 00:52:47;;;;;;;9.97;9.07;;;;;;;20.76;32.13;95224.31;6088781;28;109381;-66
2023/01/30 00:55:51;;;;;;;10.13;9.23;;;;;;;20.75;31.63;95223.53;6087071;28;109089;-66
2023/01/30 00:58:59;;;;;;;10.10;9.20;;;;;;;20.76;32.22;95230.44;6077369;28;109248;-66
2023/01/30 01:02:02;;;;;;;10.33;9.43;;;;;;;20.76;32.01;95227.00;6089841;28;109364;-66
2023/01/30 01:05:06;;;;;;;9.33;8.53;;;;;;;20.75;32.18;95230.72;6088356;28;109075;-66
2023/01/30 01:08:11;;;;;;;10.47;9.47;;;;;;;20.75;32.05;95218.22;6087271;28;111630;-66
2023/01/30 01:11:23;;;;;;;10.30;9.40;;;;;;;20.75;31.69;95220.88;6079375;28;109926;-66
2023/01/30 01:14:27;;;;;;;10.00;9.10;;;;;;;20.74;31.99;95221.97;6090502;28;110148;-66
2023/01/30 01:17:30;;;;;;;9.43;8.63;;;;;;;20.75;31.99;95223.53;6089946;28;108814;-66
2023/01/30 01:20:33;;;;;;;9.10;8.30;;;;;;;20.73;31.98;95219.59;6087071;28;109051;-65
2023/01/30 01:23:38;;;;;;;10.20;9.10;;;;;;;20.72;32.13;95213.50;6084290;28;109427;-66
2023/01/30 01:26:41;;;;;;;10.60;9.70;;;;;;;20.73;31.90;95211.63;6089935;28;108816;-66
2023/01/30 01:29:44;;;;;;;11.20;10.10;;;;;;;20.59;31.99;95191.09;6089653;28;110531;-66
2023/01/30 01:32:48;;;;;;;10.53;9.63;;;;;;;20.72;32.00;95208.19;6079436;28;109280;-66
2023/01/30 01:35:51;;;;;;;11.00;10.00;;;;;;;20.68;31.82;95201.09;6089669;28;109060;-66
2023/01/30 01:38:55;;;;;;;10.30;9.30;;;;;;;20.58;31.72;95184.22;6089489;28;109220;-65
2023/01/30 01:41:57;;;;;;;10.97;9.97;;;;;;;20.73;31.65;95195.66;6090077;28;109084;-65
2023/01/30 01:45:15;;;;;;;9.77;8.93;;;;;;;20.65;31.67;95199.78;6078216;28;109144;-65
2023/01/30 01:48:22;;;;;;;10.60;9.60;;;;;;;20.65;31.69;95197.13;6088996;28;109620;-65
2023/01/30 01:51:31;;;;;;;11.50;10.40;;;;;;;20.68;31.62;95201.88;6090283;28;110054;-66
2023/01/30 01:54:41;;;;;;;10.43;9.47;;;;;;;20.73;31.66;95211.63;6087597;28;109224;-65
2023/01/30 01:57:51;;;;;;;11.10;10.10;;;;;;;20.70;31.53;95204.22;6084606;28;109980;-65
2023/01/30 02:00:57;;;;;;;10.80;9.90;;;;;;;20.65;31.65;95198.97;6088670;28;109208;-65
2023/01/30 02:04:04;;;;;;;10.97;9.97;;;;;;;20.70;31.62;95207.69;6086910;28;109348;-65
2023/01/30 02:07:10;;;;;;;11.00;10.00;;;;;;;20.72;31.49;95207.38;6076170;28;109085;-65
2023/01/30 02:10:20;;;;;;;11.20;10.20;;;;;;;20.57;31.37;95187.16;6088233;28;109144;-66
2023/01/30 02:13:27;;;;;;;11.30;10.20;;;;;;;20.70;31.44;95209.56;6079131;28;109464;-66
2023/01/30 02:16:31;;;;;;;11.13;10.03;;;;;;;20.63;31.48;95197.41;6087824;28;109304;-65
2023/01/30 02:19:43;;;;;;;10.33;9.33;;;;;;;20.64;31.51;95198.19;6076823;28;109524;-65
2023/01/30 02:23:26;;;;;;;10.47;9.53;;;;;;;20.69;31.48;95203.44;6086090;28;110559;-66
2023/01/30 02:27:05;;;;;;;10.00;9.10;;;;;;;20.69;31.43;95200.00;6085340;28;109310;-65
2023/01/30 02:30:54;;;;;;;10.10;9.20;;;;;;;20.68;31.32;95199.22;6075301;28;109511;-65
2023/01/30 02:34:13;;;;;;;9.80;8.80;;;;;;;20.69;31.37;95198.13;6054451;28;109310;-64
2023/01/30 02:37:29;;;;;;;10.87;9.87;;;;;;;20.67;31.34;95205.63;6081860;28;109095;-65
2023/01/30 02:40:49;;;;;;;9.90;9.00;;;;;;;20.59;31.49;95183.13;6083374;28;109843;-65
2023/01/30 02:44:00;;;;;;;10.50;9.50;;;;;;;20.67;31.31;95188.84;6084705;28;110281;-65
2023/01/30 02:47:10;;;;;;;9.60;8.70;;;;;;;20.52;31.59;95158.81;6088115;28;109194;-65
2023/01/30 02:50:17;;;;;;;9.43;8.60;;;;;;;20.68;31.10;95193.91;6084329;28;111945;-65
2023/01/30 02:53:21;;;;;;;10.43;9.47;;;;;;;20.69;31.04;95178.72;6076959;28;110031;-65
2023/01/30 02:56:27;;;;;;;9.10;8.30;;;;;;;20.68;31.40;95183.25;6088330;28;109142;-65
2023/01/30 02:59:35;;;;;;;9.40;8.50;;;;;;;20.61;31.49;95180.16;6087122;28;110092;-62
2023/01/30 03:03:11;;;;;;;10.43;9.37;;;;;;;20.54;31.32;95161.97;6086537;28;109020;-63
2023/01/30 03:06:39;;;;;;;8.37;7.53;;;;;;;20.66;30.85;95190.72;6069175;28;110119;-63
2023/01/30 03:09:56;;;;;;;9.33;8.43;;;;;;;20.57;31.30;95182.63;6084871;28;109108;-62
2023/01/30 03:13:08;;;;;;;9.30;8.50;;;;;;;20.68;31.36;95191.25;6086698;28;108971;-61
2023/01/30 03:16:15;;;;;;;9.27;8.33;;;;;;;20.67;31.50;95172.88;6074084;28;110333;-61
2023/01/30 03:19:19;;;;;;;8.00;7.30;;;;;;;20.56;31.38;95153.69;6085579;28;111455;-61
2023/01/30 03:22:24;;;;;;;9.90;8.50;;;;;;;20.69;31.13;95168.88;6084208;28;110182;-61
2023/01/30 03:25:27;;;;;;;8.53;7.83;;;;;;;20.67;31.85;95163.06;6085399;28;109000;-62
2023/01/30 03:28:30;;;;;;;8.50;7.80;;;;;;;20.68;31.16;95156.66;6083727;28;109279;-61
2023/01/30 03:31:33;;;;;;;8.37;7.57;;;;;;;20.69;31.22;95157.47;6083938;28;110398;-61
2023/01/30 03:34:37;;;;;;;7.87;7.17;;;;;;;20.69;31.19;95160.91;6085403;28;109013;-61
2023/01/30 03:37:44;;;;;;;7.80;7.03;;;;;;;20.67;31.05;95148.97;6080051;28;108861;-61
2023/01/30 03:40:47;;;;;;;8.03;7.20;;;;;;;20.68;31.20;95147.91;6089172;28;109582;-61
2023/01/30 03:43:50;;;;;;;8.53;7.73;;;;;;;20.67;30.83;95152.44;6089387;28;109388;-61
2023/01/30 03:46:53;;;;;;;8.03;7.27;;;;;;;20.68;31.15;95155.88;6075390;28;109597;-61
2023/01/30 03:49:56;;;;;;;7.87;7.17;;;;;;;20.66;31.11;95156.16;6079443;28;109129;-62
2023/01/30 03:53:00;;;;;;;8.40;7.60;;;;;;;20.68;31.13;95156.66;6090341;28;109519;-61
2023/01/30 03:56:04;;;;;;;8.13;7.43;;;;;;;20.68;31.07;95162.00;6087265;28;109413;-61
2023/01/30 03:59:08;;;;;;;7.33;6.63;;;;;;;20.68;31.04;95151.34;6090760;28;109931;-61
2023/01/30 04:02:11;;;;;;;8.40;7.70;;;;;;;20.68;31.19;95151.34;6072796;28;109061;-61
2023/01/30 04:05:17;;;;;;;8.97;8.07;;;;;;;20.68;31.37;95150.56;6090490;28;110011;-61
2023/01/30 04:08:22;;;;;;;8.27;7.47;;;;;;;20.66;31.14;95142.84;6089266;28;109290;-60
2023/01/30 04:11:29;;;;;;;7.93;7.20;;;;;;;20.67;31.19;95147.13;6081949;28;109200;-61
2023/01/30 04:14:32;;;;;;;7.67;7.00;;;;;;;20.65;31.05;95149.25;6085214;28;109670;-60
2023/01/30 04:17:35;;;;;;;8.47;7.37;;;;;;;20.66;31.23;95148.16;6089990;28;109131;-60
2023/01/30 04:20:38;;;;;;;7.90;7.17;;;;;;;20.65;31.09;95146.59;6088773;28;109159;-61
2023/01/30 04:23:45;;;;;;;7.50;6.80;;;;;;;20.67;31.03;95144.47;6077356;28;109446;-60
2023/01/30 04:26:50;;;;;;;8.43;7.63;;;;;;;20.61;30.97;95140.28;6100813;28;109048;-60
2023/01/30 04:29:53;;;;;;;8.30;7.10;;;;;;;20.66;31.04;95148.16;6089566;28;109255;-60
2023/01/30 04:32:56;;;;;;;7.63;6.93;;;;;;;20.66;31.02;95150.03;6088803;28;109064;-62
2023/01/30 04:36:01;;;;;;;7.70;7.00;;;;;;;20.66;30.92;95148.16;6079131;28;109385;-62
2023/01/30 04:39:05;;;;;;;7.63;6.93;;;;;;;20.59;30.83;95137.16;6087108;28;109133;-60
2023/01/30 04:42:08;;;;;;;8.07;7.10;;;;;;;20.65;31.22;95148.47;6087653;28;109062;-61
2023/01/30 04:45:11;;;;;;;8.23;7.37;;;;;;;20.61;31.32;95150.94;6084372;28;110318;-61
2023/01/30 04:48:17;;;;;;;13.77;8.63;;;;;;;19.94;29.21;95139.78;6083154;28;108988;-60
2023/01/30 04:51:20;;;;;;;11.10;10.10;;;;;;;19.59;28.71;95131.25;6090196;28;110948;-59
2023/01/30 04:54:25;;;;;;;11.40;9.90;;;;;;;19.50;28.91;95132.22;6090306;28;109779;-60
2023/01/30 04:57:31;;;;;;;10.53;9.53;;;;;;;19.37;28.05;95123.06;6078814;28;110209;-60
2023/01/30 05:00:34;;;;;;;10.47;9.47;;;;;;;19.94;29.32;95129.16;6084092;28;109220;-61
2023/01/30 05:03:37;;;;;;;11.90;10.17;;;;;;;20.23;29.44;95127.09;6089598;28;109073;-60
2023/01/30 05:06:42;;;;;;;10.40;9.00;;;;;;;20.45;29.44;95126.47;6085791;28;109892;-61
2023/01/30 05:09:47;;;;;;;9.30;8.40;;;;;;;20.66;30.87;95123.44;6074415;28;109984;-60
2023/01/30 05:12:50;;;;;;;10.10;9.10;;;;;;;20.75;30.76;95125.16;6037323;28;110209;-60
2023/01/30 05:15:53;;;;;;;12.73;9.33;;;;;;;20.82;30.55;95120.22;6071307;28;109309;-60
2023/01/30 05:18:56;;;;;;;12.63;8.70;;;;;;;20.87;30.87;95127.34;6065971;28;109384;-61
2023/01/30 05:21:59;;;;;;;9.80;8.80;;;;;;;20.83;30.34;95127.09;6055386;28;109476;-60
2023/01/30 05:25:04;;;;;;;10.07;8.73;;;;;;;20.83;30.61;95129.75;6066543;28;109479;-61
2023/01/30 05:28:07;;;;;;;9.77;8.63;;;;;;;20.81;30.59;95123.97;6066237;28;109112;-60
2023/01/30 05:31:14;;;;;;;10.90;8.37;;;;;;;20.87;30.69;95138.75;6047729;28;110184;-62
2023/01/30 05:34:17;;;;;;;10.10;9.10;;;;;;;20.90;30.46;95129.41;6041974;28;109214;-59
2023/01/30 05:37:21;;;;;;;9.17;8.27;;;;;;;20.92;30.56;95128.00;6043117;28;109703;-59
2023/01/30 05:40:39;;;;;;;9.97;9.07;;;;;;;21.02;30.43;95126.25;6040893;28;108887;-59
2023/01/30 05:43:44;;;;;;;11.50;10.40;;;;;;;21.05;30.68;95128.34;6032054;28;109170;-59
2023/01/30 05:46:49;;;;;;;12.37;11.27;;;;;;;21.05;30.42;95128.34;6041417;28;109169;-61
2023/01/30 05:49:52;;;;;;;13.07;11.70;;;;;;;21.08;30.38;95133.06;6042301;28;109009;-61
2023/01/30 05:52:55;;;;;;;11.93;10.73;;;;;;;21.02;30.83;95128.91;6042345;28;109118;-61
2023/01/30 05:56:02;;;;;;;11.47;10.30;;;;;;;21.08;30.72;95143.72;6032045;28;109267;-61
2023/01/30 05:59:05;;;;;;;12.27;11.07;;;;;;;21.06;30.78;95145.88;6042174;28;110006;-62
2023/01/30 06:02:08;;;;;;;12.17;11.07;;;;;;;21.04;30.96;95142.69;6042444;28;109650;-59
2023/01/30 06:05:19;;;;;;;12.90;11.60;;;;;;;21.05;30.72;95141.66;6031669;28;109089;-60
2023/01/30 06:08:22;;;;;;;13.67;12.43;;;;;;;21.03;30.77;95138.47;6041909;28;109378;-60
2023/01/30 06:11:27;;;;;;;12.60;11.30;;;;;;;21.01;30.91;95143.28;6041159;28;109598;-59
2023/01/30 06:14:30;;;;;;;13.17;11.70;;;;;;;20.98;31.13;95142.00;6041937;28;109086;-59
2023/01/30 06:17:35;;;;;;;13.73;12.33;;;;;;;20.98;31.25;95143.88;6030677;28;109482;-59
2023/01/30 06:20:38;;;;;;;13.90;12.60;;;;;;;;;;6041701;28;109113;-59
2023/01/30 06:23:42;;;;;;;14.00;12.77;;;;;;;20.92;31.08;95136.00;6041448;28;109265;-60
2023/01/30 06:26:46;;;;;;;13.13;11.87;;;;;;;;;;6041865;28;110213;-60
2023/01/30 06:29:56;;;;;;;13.83;12.43;;;;;;;20.99;30.89;95126.81;6030925;28;109206;-60
2023/01/30 06:33:01;;;;;;;13.57;12.17;;;;;;;20.98;30.75;95127.91;6040856;28;109106;-59
2023/01/30 06:36:08;;;;;;;12.60;11.33;;;;;;;20.93;30.61;95137.56;6041339;28;109153;-60
2023/01/30 06:39:11;;;;;;;14.80;13.30;;;;;;;20.93;30.96;95137.56;6036091;28;110398;-60
2023/01/30 06:42:16;;;;;;;13.70;12.40;;;;;;;20.87;30.91;95130.78;6037376;28;110928;-61
2023/01/30 06:45:19;;;;;;;13.37;12.07;;;;;;;20.85;30.84;95135.59;6041494;28;108927;-60
2023/01/30 06:48:22;;;;;;;12.43;11.30;;;;;;;20.83;31.06;95137.75;6041107;28;109103;-61
2023/01/30 06:51:28;;;;;;;12.33;11.23;;;;;;;20.83;30.79;95142.28;6031225;28;109290;-59
2023/01/30 06:54:31;;;;;;;12.70;11.40;;;;;;;20.72;30.95;95135.59;6041155;28;109209;-61
2023/01/30 06:57:36;;;;;;;13.43;12.10;;;;;;;20.71;30.87;95137.47;6041093;28;109572;-61
2023/01/30 07:00:41;;;;;;;11.93;10.73;;;;;;;20.75;31.08;95146.41;6041471;28;109117;-61
2023/01/30 07:03:44;;;;;;;13.07;11.77;;;;;;;20.75;30.99;95141.09;6030783;28;110022;-61
2023/01/30 07:06:47;;;;;;;13.00;11.80;;;;;;;20.76;30.87;95152.53;6040761;28;109128;-61
2023/01/30 07:09:50;;;;;;;12.73;11.53;;;;;;;20.75;31.07;95153.63;6039773;28;109052;-61
2023/01/30 07:13:11;;;;;;;12.43;11.23;;;;;;;20.75;31.20;95156.28;6034945;28;109170;-60
2023/01/30 07:16:14;;;;;;;11.93;10.83;;;;;;;20.75;31.02;95159.72;6035042;28;109113;-60
2023/01/30 07:19:17;;;;;;;11.23;10.13;;;;;;;20.75;31.07;95159.72;6041037;28;109978;-60
2023/01/30 07:22:20;;;;;;;11.47;10.37;;;;;;;20.79;31.10;95158.03;6040629;28;109326;-61
2023/01/30 07:25:24;;;;;;;12.00;10.90;;;;;;;20.86;30.95;95161.13;6030687;28;109399;-60
2023/01/30 07:28:29;;;;;;;12.27;11.17;;;;;;;20.89;31.13;95163.19;6040696;28;110085;-60
2023/01/30 07:31:32;;;;;;;12.37;11.17;;;;;;;20.93;31.01;95168.69;6040378;28;109083;-60
2023/01/30 07:34:35;;;;;;;12.70;11.60;;;;;;;20.97;31.15;95169.69;6040734;28;109602;-63
2023/01/30 07:37:38;;;;;;;11.53;10.43;;;;;;;20.90;31.09;95174.59;6030335;28;109199;-60
2023/01/30 07:40:44;;;;;;;12.23;11.03;;;;;;;20.87;30.96;95175.22;6040544;28;109130;-61
2023/01/30 07:43:52;;;;;;;13.20;11.93;;;;;;;20.85;31.17;95170.19;6040080;28;110004;-61
2023/01/30 07:46:58;;;;;;;12.00;10.80;;;;;;;20.82;31.23;95176.06;6035896;28;110192;-61
2023/01/30 07:50:01;;;;;;;11.67;10.57;;;;;;;20.83;31.35;95174.19;6035474;28;108804;-61
2023/01/30 07:53:09;;;;;;;12.70;11.50;;;;;;;20.74;30.90;95152.81;6040188;28;108983;-61
2023/01/30 07:56:17;;;;;;;11.80;10.70;;;;;;;20.81;31.39;95163.06;6040399;28;109327;-61
2023/01/30 07:59:21;;;;;;;11.60;10.50;;;;;;;20.80;31.10;95148.97;6029050;28;109421;-61
2023/01/30 08:02:26;;;;;;;12.03;10.83;;;;;;;20.74;31.11;95141.41;6040413;28;110256;-61
2023/01/30 08:05:29;;;;;;;11.60;10.60;;;;;;;20.80;31.08;95140.22;6040104;28;109312;-61
2023/01/30 08:08:36;;;;;;;11.30;10.30;;;;;;;20.79;31.17;95138.63;6039830;28;109516;-61
2023/01/30 08:11:39;;;;;;;11.23;10.13;;;;;;;20.79;31.00;95136.75;6030611;28;110763;-60
2023/01/30 08:14:46;;;;;;;11.50;10.30;;;;;;;20.76;31.02;95137.34;6040133;28;109482;-61
2023/01/30 08:17:53;;;;;;;12.50;10.23;;;;;;;20.74;31.06;95136.88;6040014;28;109189;-60
2023/01/30 08:20:57;;;;;;;11.23;10.23;;;;;;;20.78;31.15;95137.06;6035818;28;110007;-60
2023/01/30 08:24:00;;;;;;;11.50;10.40;;;;;;;20.77;30.85;95143.47;6038681;28;108945;-60
2023/01/30 08:27:04;;;;;;;10.70;9.70;;;;;;;20.75;31.06;95138.44;6044327;28;109484;-61
2023/01/30 08:30:13;;;;;;;10.23;9.23;;;;;;;20.76;31.02;95128.59;6043892;28;109571;-60
2023/01/30 08:33:16;;;;;;;11.77;10.67;;;;;;;20.69;31.06;95121.00;6033854;28;110182;-60
2023/01/30 08:36:19;;;;;;;10.80;9.70;;;;;;;20.73;30.86;95124.66;6043966;28;108917;-60
2023/01/30 08:39:22;;;;;;;11.17;10.10;;;;;;;20.75;31.18;95129.69;6043418;28;109027;-60
2023/01/30 08:42:25;;;;;;;11.07;10.07;;;;;;;20.70;30.95;95111.16;6043726;28;110169;-62
2023/01/30 08:45:30;;;;;;;11.40;9.97;;;;;;;20.75;30.82;95114.50;6032612;28;110179;-61
2023/01/30 08:48:33;;;;;;;10.03;9.03;;;;;;;20.76;31.03;95112.63;6043660;28;110193;-61
2023/01/30 08:51:51;;;;;;;10.50;9.50;;;;;;;20.73;31.17;95107.91;6043857;28;109092;-59
2023/01/30 08:54:54;;;;;;;10.57;9.57;;;;;;;20.75;31.12;95113.72;6041703;28;109055;-60
2023/01/30 08:57:57;;;;;;;10.70;9.70;;;;;;;20.74;31.13;95096.97;6036861;28;109560;-59
2023/01/30 09:01:06;;;;;;;10.57;9.57;;;;;;;20.76;30.81;95102.78;6043934;28;110135;-59
2023/01/30 09:04:10;;;;;;;9.83;8.90;;;;;;;20.75;30.93;95097.75;6044034;28;109150;-60
2023/01/30 09:07:15;;;;;;;10.83;9.83;;;;;;;20.77;31.01;95100.91;6033911;28;109403;-60
2023/01/30 09:10:21;;;;;;;9.33;8.43;;;;;;;20.74;31.07;95094.31;6043790;28;109208;-60
2023/01/30 09:13:24;;;;;;;9.83;8.93;;;;;;;20.79;30.77;95094.22;6043454;28;108932;-60
2023/01/30 09:16:28;;;;;;;10.30;9.30;;;;;;;20.79;30.79;95085.44;6042913;28;108857;-60
2023/01/30 09:19:31;;;;;;;11.37;10.27;;;;;;;20.80;30.86;95089.69;6032455;28;109639;-60
2023/01/30 09:22:34;;;;;;;10.67;9.63;;;;;;;20.80;30.84;95079.03;6073163;28;108918;-59
2023/01/30 09:25:38;;;;;;;10.40;8.90;;;;;;;20.81;31.25;95078.75;6091001;28;108848;-59
2023/01/30 09:28:41;;;;;;;10.43;9.33;;;;;;;20.82;30.67;95079.53;6090942;28;109620;-60
2023/01/30 09:31:45;;;;;;;9.57;8.63;;;;;;;20.83;30.78;95081.09;6080123;28;108759;-59
2023/01/30 09:34:49;;;;;;;10.30;9.30;;;;;;;20.80;30.88;95082.50;6089876;28;109249;-60
2023/01/30 09:37:54;;;;;;;9.50;8.60;;;;;;;20.80;30.82;95079.84;6090874;28;110274;-60
2023/01/30 09:41:28;;;;;;;9.40;8.50;;;;;;;20.82;30.90;95079.53;6085692;28;109325;-59
2023/01/30 09:45:10;;;;;;;9.43;8.53;;;;;;;20.82;30.79;95076.88;6090742;28;109018;-61
2023/01/30 09:48:21;;;;;;;9.90;8.90;;;;;;;20.78;31.04;95068.69;6087673;28;109156;-60
2023/01/30 09:51:43;;;;;;;8.93;8.13;;;;;;;20.81;30.92;95065.44;6089638;28;109110;-60
2023/01/30 09:54:49;;;;;;;9.80;8.80;;;;;;;20.67;30.74;95038.09;6084716;28;111633;-59
2023/01/30 09:57:54;;;;;;;9.53;8.53;;;;;;;20.75;30.71;95048.03;6089391;28;109139;-60
2023/01/30 10:01:06;;;;;;;9.20;8.30;;;;;;;20.80;30.74;95055.91;6089624;28;109122;-61
2023/01/30 10:04:18;;;;;;;8.90;8.10;;;;;;;20.75;30.90;95040.06;6079531;28;109267;-59
2023/01/30 10:07:26;;;;;;;8.70;7.80;;;;;;;20.77;30.96;95037.88;6089979;28;109199;-59
2023/01/30 10:10:45;;;;;;;8.90;8.10;;;;;;;20.76;30.96;95036.31;6090168;28;109599;-59
2023/01/30 10:14:07;;;;;;;8.57;7.67;;;;;;;20.72;30.71;95021.25;6089991;28;108819;-60
2023/01/30 10:17:28;;;;;;;9.13;8.33;;;;;;;20.77;30.98;95021.91;6079166;28;110280;-60
2023/01/30 10:20:48;;;;;;;8.83;8.03;;;;;;;20.77;30.92;95021.13;6089158;28;109169;-60
2023/01/30 10:24:07;;;;;;;9.33;8.43;;;;;;;20.78;30.64;95006.75;6089934;28;109499;-59
2023/01/30 10:27:16;;;;;;;8.83;8.03;;;;;;;20.78;30.81;95012.84;6078791;28;110087;-59
2023/01/30 10:30:20;;;;;;;8.40;7.60;;;;;;;20.78;30.93;95002.22;6088660;28;109212;-60
2023/01/30 10:33:32;;;;;;;9.00;8.10;;;;;;;20.76;30.94;94993.75;6088770;28;109249;-59
2023/01/30 10:36:43;;;;;;;8.10;7.40;;;;;;;20.77;30.90;94987.34;6089628;28;109175;-60
2023/01/30 10:39:55;;;;;;;8.23;7.53;;;;;;;20.77;30.90;94982.03;6079471;28;109150;-60
2023/01/30 10:43:06;;;;;;;8.83;7.93;;;;;;;20.76;30.88;94975.16;6090062;28;108718;-59
2023/01/30 10:46:23;;;;;;;8.27;7.53;;;;;;;20.77;30.91;94968.75;6089323;28;109184;-60
2023/01/30 10:49:38;;;;;;;9.03;8.30;;;;;;;20.78;31.05;94959.66;6078606;28;109531;-60
2023/01/30 10:52:47;;;;;;;9.10;8.20;;;;;;;20.78;30.92;94959.66;6087684;28;109651;-60
2023/01/30 10:55:57;;;;;;;8.07;7.37;;;;;;;20.80;30.72;94954.84;6088511;28;109174;-60
2023/01/30 10:59:07;;;;;;;8.07;7.33;;;;;;;20.81;30.98;94937.78;6088360;28;109087;-60
2023/01/30 11:02:23;;;;;;;8.20;7.40;;;;;;;20.77;30.75;94926.19;6079206;28;109528;-60
2023/01/30 11:05:30;;;;;;;7.87;7.10;;;;;;;20.82;31.05;94912.78;6088462;28;110520;-60
2023/01/30 11:08:36;;;;;;;8.33;7.53;;;;;;;20.82;30.87;94906.66;6088543;28;110294;-59
2023/01/30 11:11:48;;;;;;;8.70;7.90;;;;;;;20.84;30.36;94909.84;6083431;28;108880;-60
2023/01/30 11:14:55;;;;;;;8.00;7.30;;;;;;;20.75;30.79;94885.03;6085112;28;111103;-59
2023/01/30 11:18:05;;;;;;;8.03;7.33;;;;;;;20.85;30.85;94901.56;6088749;28;109381;-60
2023/01/30 11:21:30;;;;;;;8.07;7.37;;;;;;;20.86;30.70;94895.16;6088847;28;108854;-59
2023/01/30 11:24:47;;;;;;;7.83;7.03;;;;;;;20.86;30.70;94884.50;6077482;28;111030;-60
2023/01/30 11:27:55;;;;;;;8.90;8.10;;;;;;;20.84;30.77;94875.25;6088567;28;109379;-60
2023/01/30 11:31:01;;;;;;;9.10;8.20;;;;;;;20.86;30.75;94867.78;6088507;28;109324;-60
2023/01/30 11:34:12;;;;;;;7.27;6.57;;;;;;;20.86;30.94;94862.44;6083915;28;109144;-60
2023/01/30 11:37:27;;;;;;;8.60;7.80;;;;;;;20.85;30.71;94864.31;6082771;28;109941;-61
2023/01/30 11:40:38;;;;;;;8.73;7.30;;;;;;;20.84;30.61;94851.34;6088744;28;109567;-61
2023/01/30 11:43:41;;;;;;;9.00;8.10;;;;;;;20.79;30.95;94841.56;6088761;28;109067;-61
2023/01/30 11:46:45;;;;;;;7.80;7.17;;;;;;;20.87;30.91;94848.84;6077118;28;109797;-61
2023/01/30 11:49:53;;;;;;;9.87;7.83;;;;;;;20.86;30.80;94841.16;6087950;28;109291;-61
2023/01/30 11:53:26;;;;;;;7.93;7.13;;;;;;;20.84;30.72;94827.41;6088486;28;110263;-60
2023/01/30 11:56:34;;;;;;;7.80;7.03;;;;;;;20.85;30.87;94821.78;6089114;28;109135;-60
2023/01/30 11:59:43;;;;;;;7.40;6.70;;;;;;;20.84;30.68;94811.44;6082199;28;109541;-60
2023/01/30 12:02:50;;;;;;;8.50;7.40;;;;;;;20.86;30.83;94811.91;6092152;28;109135;-60
2023/01/30 12:05:58;;;;;;;8.37;7.57;;;;;;;20.83;30.79;94801.84;6092220;28;109218;-59
2023/01/30 12:09:03;;;;;;;8.53;7.73;;;;;;;20.83;30.96;94784.03;6082283;28;110268;-59
2023/01/30 12:12:28;;;;;;;7.60;6.90;;;;;;;20.84;30.88;94793.59;6091980;28;109933;-59
2023/01/30 12:15:35;;;;;;;8.07;7.37;;;;;;;20.82;30.62;94781.69;6092103;28;108883;-60
2023/01/30 12:18:46;;;;;;;7.20;6.60;;;;;;;20.85;30.88;94783.75;6092280;28;109236;-60
2023/01/30 12:21:57;;;;;;;8.10;7.37;;;;;;;20.86;30.68;94780.78;6081425;28;109138;-60
2023/01/30 12:25:01;;;;;;;8.13;7.43;;;;;;;20.85;31.05;94779.22;6091510;28;109280;-61
2023/01/30 12:28:22;;;;;;;8.20;7.40;;;;;;;20.85;30.87;94773.13;6090738;28;110218;-60
2023/01/30 12:31:34;;;;;;;8.30;7.50;;;;;;;20.85;30.92;94773.91;6085082;28;109520;-61
2023/01/30 12:34:38;;;;;;;7.70;6.97;;;;;;;20.81;30.90;94761.50;6090679;28;109050;-60
2023/01/30 12:37:50;;;;;;;8.67;7.77;;;;;;;20.83;30.67;94762.75;6092104;28;109601;-60
2023/01/30 12:41:06;;;;;;;7.60;6.90;;;;;;;20.83;30.96;94761.97;6091512;28;109166;-61
2023/01/30 12:44:36;;;;;;;8.53;7.63;;;;;;;20.73;30.93;94736.44;6080840;28;109779;-60
2023/01/30 12:47:51;;;;;;;8.10;7.30;;;;;;;;;;6088929;28;109289;-61
2023/01/30 12:51:12;;;;;;;7.83;7.13;;;;;;;20.97;31.00;94744.06;6091702;28;110056;-60
2023/01/30 12:54:26;;;;;;;8.40;7.60;;;;;;;20.91;31.07;94735.44;6083224;28;110243;-60
2023/01/30 12:57:39;;;;;;;7.90;7.10;;;;;;;20.79;30.97;94715.81;6090430;28;109194;-60
2023/01/30 13:01:02;;;;;;;7.80;7.10;;;;;;;20.90;31.05;94719.78;6089935;28;108985;-62
2023/01/30 13:04:16;;;;;;;7.60;6.90;;;;;;;20.91;31.17;94719.47;6090879;28;110147;-60
2023/01/30 13:07:30;;;;;;;7.90;7.17;;;;;;;20.89;31.37;94720.88;6066334;28;109586;-60
2023/01/30 13:10:39;;;;;;;8.27;7.47;;;;;;;20.84;31.42;94719.16;6066978;28;109832;-60
2023/01/30 13:13:52;;;;;;;8.60;7.77;;;;;;;20.83;31.66;94720.19;6067163;28;109244;-61
2023/01/30 13:17:14;;;;;;;7.90;7.20;;;;;;;20.82;31.33;94715.19;6059975;28;111017;-61
2023/01/30 13:20:32;;;;;;;7.80;7.10;;;;;;;20.79;31.57;94711.28;6066470;28;109242;-62
2023/01/30 13:23:48;;;;;;;7.77;7.00;;;;;;;20.79;31.30;94711.28;6065809;28;109706;-59
2023/01/30 13:26:58;;;;;;;7.93;7.23;;;;;;;20.81;31.38;94709.09;6066278;28;109431;-60
2023/01/30 13:30:05;;;;;;;7.87;7.17;;;;;;;20.81;31.42;94703.00;6055953;28;109265;-59
2023/01/30 13:33:13;;;;;;;8.83;8.03;;;;;;;20.71;31.18;94685.44;6065140;28;109069;-60
2023/01/30 13:36:24;;;;;;;7.87;7.17;;;;;;;20.81;31.05;94692.34;6066148;28;109504;-60
2023/01/30 13:39:35;;;;;;;8.90;8.07;;;;;;;20.70;31.06;94678.56;6060700;28;109343;-60
2023/01/30 13:42:50;;;;;;;8.80;7.93;;;;;;;20.80;31.17;94686.25;6065612;28;110512;-60
2023/01/30 13:45:57;;;;;;;7.23;6.53;;;;;;;20.79;31.30;94679.38;6066653;28;109962;-60
2023/01/30 13:49:16;;;;;;;8.63;7.80;;;;;;;20.78;31.28;94674.34;6065666;28;109289;-60
2023/01/30 13:52:27;;;;;;;8.87;8.10;;;;;;;20.77;31.05;94670.91;6056324;28;110550;-61
2023/01/30 13:55:38;;;;;;;8.17;7.20;;;;;;;20.77;31.17;94681.53;6066276;28;109021;-60
2023/01/30 13:58:50;;;;;;;8.10;7.20;;;;;;;20.76;31.35;94682.63;6065667;28;109141;-60
2023/01/30 14:02:20;;;;;;;7.80;7.10;;;;;;;20.78;31.27;94682.31;6061488;28;109168;-60
2023/01/30 14:05:58;;;;;;;8.80;8.00;;;;;;;20.73;31.19;94677.94;6063166;28;110297;-60
2023/01/30 14:09:17;;;;;;;7.67;6.97;;;;;;;20.65;31.34;94662.72;6065441;28;109319;-60
2023/01/30 14:12:28;;;;;;;8.50;7.80;;;;;;;20.76;30.99;94679.97;6065565;28;109079;-60
2023/01/30 14:15:31;;;;;;;8.40;7.60;;;;;;;20.75;31.03;94683.72;6054344;28;109096;-60
2023/01/30 14:18:37;;;;;;;9.40;7.77;;;;;;;20.74;31.35;94682.16;6065223;28;110110;-60
2023/01/30 14:21:55;;;;;;;8.10;7.30;;;;;;;20.75;31.04;94678.41;6065322;28;109384;-60
2023/01/30 14:25:34;;;;;;;7.67;6.93;;;;;;;20.74;31.02;94676.84;6060133;28;110113;-61
2023/01/30 14:28:47;;;;;;;8.87;7.97;;;;;;;20.75;31.25;94678.41;6065138;28;109052;-60
2023/01/30 14:31:51;;;;;;;8.53;7.73;;;;;;;20.76;31.02;94676.53;6065050;28;109114;-60
2023/01/30 14:35:27;;;;;;;8.60;7.80;;;;;;;20.74;30.93;94679.50;6065545;28;110331;-62
2023/01/30 14:38:31;;;;;;;8.40;7.60;;;;;;;20.75;30.77;94678.41;6049103;28;109229;-61
2023/01/30 14:41:36;;;;;;;8.70;7.90;;;;;;;20.75;31.15;94677.63;6065069;28;109438;-61